Morrisville, Pennsylvania
Current Conditions -  °F | °C
As of 10:53 AM on Friday 28 Nov 2014 (Local Time) from KTTN Reporting Station
Scattered Clouds Scattered Clouds  
Wind Chill: 28°   Ceiling: Unl
Heat Index: 36°   Visibility: 10mi
Dew Point: 21°   Wind: 13mph
Humidity: 55%   Direction: 330°NNW
Pressure: 30.2"   Gusts: 22mph
Location:  40.21°N, 74.79°W
Report Text: KTTN 281553Z 33011G19KT 10SM SCT035 02/M06 A3020 RMK AO2 SLP223 T00221061
Loading
Personal Weather Stations






























Interactive Weather Map New forecast layout! Learn more

10-Day Weather Forecast

Advertisements
Track Severe Weather on mobile